sensor_id;sensor_type;location;lat;lon;timestamp;P1;durP1;ratioP1;P2;durP2;ratioP2
74465;SDS011;62916;50.044;15.938;2023-02-15T00:02:17;4.10;;;3.20;;
74465;SDS011;62916;50.044;15.938;2023-02-15T00:04:48;3.10;;;2.80;;
74465;SDS011;62916;50.044;15.938;2023-02-15T00:07:21;3.80;;;3.00;;
74465;SDS011;62916;50.044;15.938;2023-02-15T00:09:52;3.60;;;3.30;;
74465;SDS011;62916;50.044;15.938;2023-02-15T00:12:22;3.20;;;2.90;;
74465;SDS011;62916;50.044;15.938;2023-02-15T00:14:53;3.60;;;3.30;;
74465;SDS011;62916;50.044;15.938;2023-02-15T00:17:24;3.60;;;3.10;;
74465;SDS011;62916;50.044;15.938;2023-02-15T00:19:57;3.50;;;2.80;;
74465;SDS011;62916;50.044;15.938;2023-02-15T00:22:28;3.00;;;2.80;;
74465;SDS011;62916;50.044;15.938;2023-02-15T00:24:59;3.80;;;3.10;;
74465;SDS011;62916;50.044;15.938;2023-02-15T00:27:30;3.70;;;3.10;;
74465;SDS011;62916;50.044;15.938;2023-02-15T00:30:02;2.80;;;2.40;;
74465;SDS011;62916;50.044;15.938;2023-02-15T00:32:34;3.10;;;2.80;;
74465;SDS011;62916;50.044;15.938;2023-02-15T00:35:06;3.60;;;3.30;;
74465;SDS011;62916;50.044;15.938;2023-02-15T00:37:38;3.70;;;3.30;;
74465;SDS011;62916;50.044;15.938;2023-02-15T00:40:10;3.20;;;2.60;;
74465;SDS011;62916;50.044;15.938;2023-02-15T00:42:41;4.50;;;3.40;;
74465;SDS011;62916;50.044;15.938;2023-02-15T00:45:12;4.70;;;3.60;;
74465;SDS011;62916;50.044;15.938;2023-02-15T00:47:44;6.00;;;3.50;;
74465;SDS011;62916;50.044;15.938;2023-02-15T00:50:16;4.10;;;3.30;;
74465;SDS011;62916;50.044;15.938;2023-02-15T00:52:50;3.30;;;2.70;;
74465;SDS011;62916;50.044;15.938;2023-02-15T00:55:21;4.80;;;2.80;;
74465;SDS011;62916;50.044;15.938;2023-02-15T00:57:51;4.70;;;2.70;;
74465;SDS011;62916;50.044;15.938;2023-02-15T01:00:22;3.20;;;2.90;;
74465;SDS011;62916;50.044;15.938;2023-02-15T01:02:53;3.40;;;2.70;;
74465;SDS011;62916;50.044;15.938;2023-02-15T01:05:23;3.60;;;3.20;;
74465;SDS011;62916;50.044;15.938;2023-02-15T01:07:54;3.40;;;3.00;;
74465;SDS011;62916;50.044;15.938;2023-02-15T01:10:26;3.30;;;2.90;;
74465;SDS011;62916;50.044;15.938;2023-02-15T01:12:57;4.40;;;2.80;;
74465;SDS011;62916;50.044;15.938;2023-02-15T01:15:28;3.80;;;3.40;;
74465;SDS011;62916;50.044;15.938;2023-02-15T01:17:59;3.70;;;3.00;;
74465;SDS011;62916;50.044;15.938;2023-02-15T01:20:33;2.90;;;2.70;;
74465;SDS011;62916;50.044;15.938;2023-02-15T01:23:06;3.20;;;2.80;;
74465;SDS011;62916;50.044;15.938;2023-02-15T01:25:37;3.60;;;2.90;;
74465;SDS011;62916;50.044;15.938;2023-02-15T01:28:08;3.00;;;2.60;;
74465;SDS011;62916;50.044;15.938;2023-02-15T01:30:39;3.30;;;3.00;;
74465;SDS011;62916;50.044;15.938;2023-02-15T01:33:10;3.30;;;2.90;;
74465;SDS011;62916;50.044;15.938;2023-02-15T01:35:45;3.50;;;2.80;;
74465;SDS011;62916;50.044;15.938;2023-02-15T01:38:16;3.50;;;2.90;;
74465;SDS011;62916;50.044;15.938;2023-02-15T01:40:47;3.40;;;2.80;;
74465;SDS011;62916;50.044;15.938;2023-02-15T01:43:21;2.90;;;2.60;;
74465;SDS011;62916;50.044;15.938;2023-02-15T01:46:07;4.30;;;3.00;;
74465;SDS011;62916;50.044;15.938;2023-02-15T01:48:42;3.20;;;2.90;;
74465;SDS011;62916;50.044;15.938;2023-02-15T01:51:16;2.90;;;2.70;;
74465;SDS011;62916;50.044;15.938;2023-02-15T01:53:50;3.60;;;3.00;;
74465;SDS011;62916;50.044;15.938;2023-02-15T01:56:25;3.90;;;2.90;;
74465;SDS011;62916;50.044;15.938;2023-02-15T01:59:02;3.50;;;2.80;;
74465;SDS011;62916;50.044;15.938;2023-02-15T02:01:35;3.10;;;2.70;;
74465;SDS011;62916;50.044;15.938;2023-02-15T02:04:09;3.40;;;3.10;;
74465;SDS011;62916;50.044;15.938;2023-02-15T02:06:43;3.30;;;3.00;;
74465;SDS011;62916;50.044;15.938;2023-02-15T02:09:17;3.30;;;3.00;;
74465;SDS011;62916;50.044;15.938;2023-02-15T02:11:48;3.10;;;2.80;;
74465;SDS011;62916;50.044;15.938;2023-02-15T02:14:21;3.50;;;3.10;;
74465;SDS011;62916;50.044;15.938;2023-02-15T02:16:56;3.50;;;3.00;;
74465;SDS011;62916;50.044;15.938;2023-02-15T02:19:45;3.20;;;2.70;;
74465;SDS011;62916;50.044;15.938;2023-02-15T02:25:38;3.80;;;3.40;;
74465;SDS011;62916;50.044;15.938;2023-02-15T02:28:36;3.80;;;3.50;;
74465;SDS011;62916;50.044;15.938;2023-02-15T02:31:34;3.60;;;2.90;;
74465;SDS011;62916;50.044;15.938;2023-02-15T02:34:14;3.20;;;2.80;;
74465;SDS011;62916;50.044;15.938;2023-02-15T02:39:31;4.10;;;3.00;;
74465;SDS011;62916;50.044;15.938;2023-02-15T02:42:12;3.30;;;3.00;;
74465;SDS011;62916;50.044;15.938;2023-02-15T02:44:47;3.50;;;2.90;;
74465;SDS011;62916;50.044;15.938;2023-02-15T02:47:23;3.50;;;3.20;;
74465;SDS011;62916;50.044;15.938;2023-02-15T02:50:00;3.30;;;3.00;;
74465;SDS011;62916;50.044;15.938;2023-02-15T02:52:38;3.60;;;3.20;;
74465;SDS011;62916;50.044;15.938;2023-02-15T02:55:12;3.60;;;3.20;;
74465;SDS011;62916;50.044;15.938;2023-02-15T02:57:49;3.50;;;2.90;;
74465;SDS011;62916;50.044;15.938;2023-02-15T03:00:24;3.60;;;3.20;;
74465;SDS011;62916;50.044;15.938;2023-02-15T03:03:00;3.70;;;3.30;;
74465;SDS011;62916;50.044;15.938;2023-02-15T03:05:35;3.20;;;2.90;;
74465;SDS011;62916;50.044;15.938;2023-02-15T03:08:10;3.10;;;2.80;;
74465;SDS011;62916;50.044;15.938;2023-02-15T03:10:50;4.10;;;3.10;;
74465;SDS011;62916;50.044;15.938;2023-02-15T03:13:24;3.30;;;3.00;;
74465;SDS011;62916;50.044;15.938;2023-02-15T03:15:55;2.70;;;2.50;;
74465;SDS011;62916;50.044;15.938;2023-02-15T03:18:47;3.40;;;2.90;;
74465;SDS011;62916;50.044;15.938;2023-02-15T03:21:27;2.90;;;2.60;;
74465;SDS011;62916;50.044;15.938;2023-02-15T03:24:06;3.30;;;2.80;;
74465;SDS011;62916;50.044;15.938;2023-02-15T03:26:41;3.80;;;2.90;;
74465;SDS011;62916;50.044;15.938;2023-02-15T03:29:15;3.20;;;2.70;;
74465;SDS011;62916;50.044;15.938;2023-02-15T03:34:20;3.10;;;2.80;;
74465;SDS011;62916;50.044;15.938;2023-02-15T03:36:52;3.00;;;2.70;;
74465;SDS011;62916;50.044;15.938;2023-02-15T03:39:30;2.40;;;2.20;;
74465;SDS011;62916;50.044;15.938;2023-02-15T03:42:07;3.70;;;2.50;;
74465;SDS011;62916;50.044;15.938;2023-02-15T03:44:46;3.00;;;2.70;;
74465;SDS011;62916;50.044;15.938;2023-02-15T03:47:24;2.70;;;2.50;;
74465;SDS011;62916;50.044;15.938;2023-02-15T03:50:00;3.00;;;2.70;;
74465;SDS011;62916;50.044;15.938;2023-02-15T03:52:55;3.10;;;2.70;;
74465;SDS011;62916;50.044;15.938;2023-02-15T03:55:31;2.70;;;2.30;;
74465;SDS011;62916;50.044;15.938;2023-02-15T03:58:02;3.40;;;3.10;;
74465;SDS011;62916;50.044;15.938;2023-02-15T04:00:51;2.60;;;2.40;;
74465;SDS011;62916;50.044;15.938;2023-02-15T04:03:45;2.70;;;2.40;;
74465;SDS011;62916;50.044;15.938;2023-02-15T04:06:23;3.00;;;2.70;;
74465;SDS011;62916;50.044;15.938;2023-02-15T04:08:54;2.80;;;2.50;;
74465;SDS011;62916;50.044;15.938;2023-02-15T04:11:42;2.80;;;2.40;;
74465;SDS011;62916;50.044;15.938;2023-02-15T04:14:14;3.00;;;2.70;;
74465;SDS011;62916;50.044;15.938;2023-02-15T04:17:14;3.00;;;2.60;;
74465;SDS011;62916;50.044;15.938;2023-02-15T04:19:45;2.90;;;2.60;;
74465;SDS011;62916;50.044;15.938;2023-02-15T04:22:33;3.10;;;2.70;;
74465;SDS011;62916;50.044;15.938;2023-02-15T04:25:22;3.10;;;2.80;;
74465;SDS011;62916;50.044;15.938;2023-02-15T04:27:53;3.30;;;2.80;;
74465;SDS011;62916;50.044;15.938;2023-02-15T04:30:25;3.10;;;2.80;;
74465;SDS011;62916;50.044;15.938;2023-02-15T04:32:56;3.00;;;2.70;;
74465;SDS011;62916;50.044;15.938;2023-02-15T04:35:27;3.10;;;2.70;;
74465;SDS011;62916;50.044;15.938;2023-02-15T04:37:59;3.20;;;2.90;;
74465;SDS011;62916;50.044;15.938;2023-02-15T04:40:30;3.10;;;2.80;;
74465;SDS011;62916;50.044;15.938;2023-02-15T04:43:01;3.10;;;2.70;;
74465;SDS011;62916;50.044;15.938;2023-02-15T04:45:32;3.50;;;3.00;;
74465;SDS011;62916;50.044;15.938;2023-02-15T04:48:03;2.70;;;2.40;;
74465;SDS011;62916;50.044;15.938;2023-02-15T04:50:34;3.00;;;2.60;;
74465;SDS011;62916;50.044;15.938;2023-02-15T04:53:05;2.90;;;2.60;;
74465;SDS011;62916;50.044;15.938;2023-02-15T04:55:36;2.80;;;2.60;;
74465;SDS011;62916;50.044;15.938;2023-02-15T04:58:07;3.00;;;2.70;;
74465;SDS011;62916;50.044;15.938;2023-02-15T05:00:38;3.20;;;2.90;;
74465;SDS011;62916;50.044;15.938;2023-02-15T05:03:09;3.70;;;2.60;;
74465;SDS011;62916;50.044;15.938;2023-02-15T05:05:39;3.10;;;2.40;;
74465;SDS011;62916;50.044;15.938;2023-02-15T05:08:12;3.20;;;2.90;;
74465;SDS011;62916;50.044;15.938;2023-02-15T05:10:43;3.50;;;3.00;;
74465;SDS011;62916;50.044;15.938;2023-02-15T05:13:16;2.80;;;2.40;;
74465;SDS011;62916;50.044;15.938;2023-02-15T05:15:50;3.10;;;2.60;;
74465;SDS011;62916;50.044;15.938;2023-02-15T05:18:21;3.20;;;2.90;;
74465;SDS011;62916;50.044;15.938;2023-02-15T05:20:52;3.20;;;2.90;;
74465;SDS011;62916;50.044;15.938;2023-02-15T05:23:24;2.90;;;2.50;;
74465;SDS011;62916;50.044;15.938;2023-02-15T05:25:55;3.50;;;3.20;;
74465;SDS011;62916;50.044;15.938;2023-02-15T05:28:43;3.60;;;2.90;;
74465;SDS011;62916;50.044;15.938;2023-02-15T05:31:15;3.30;;;3.00;;
74465;SDS011;62916;50.044;15.938;2023-02-15T05:33:47;3.30;;;3.00;;
74465;SDS011;62916;50.044;15.938;2023-02-15T05:36:18;3.00;;;2.70;;
74465;SDS011;62916;50.044;15.938;2023-02-15T05:38:49;3.00;;;2.70;;
74465;SDS011;62916;50.044;15.938;2023-02-15T05:41:21;3.50;;;3.10;;
74465;SDS011;62916;50.044;15.938;2023-02-15T05:43:54;3.10;;;2.80;;
74465;SDS011;62916;50.044;15.938;2023-02-15T05:46:25;2.90;;;2.50;;
74465;SDS011;62916;50.044;15.938;2023-02-15T05:48:56;3.10;;;2.70;;
74465;SDS011;62916;50.044;15.938;2023-02-15T05:51:27;3.40;;;3.10;;
74465;SDS011;62916;50.044;15.938;2023-02-15T05:53:57;3.10;;;2.80;;
74465;SDS011;62916;50.044;15.938;2023-02-15T05:56:28;3.10;;;2.80;;
74465;SDS011;62916;50.044;15.938;2023-02-15T05:59:00;4.00;;;3.80;;
74465;SDS011;62916;50.044;15.938;2023-02-15T06:01:31;3.10;;;2.80;;
74465;SDS011;62916;50.044;15.938;2023-02-15T06:04:02;3.20;;;2.90;;
74465;SDS011;62916;50.044;15.938;2023-02-15T06:06:33;2.70;;;2.50;;
74465;SDS011;62916;50.044;15.938;2023-02-15T06:09:04;2.70;;;2.50;;
74465;SDS011;62916;50.044;15.938;2023-02-15T06:11:35;3.10;;;2.70;;
74465;SDS011;62916;50.044;15.938;2023-02-15T06:14:06;2.80;;;2.60;;
74465;SDS011;62916;50.044;15.938;2023-02-15T06:16:37;2.90;;;2.70;;
74465;SDS011;62916;50.044;15.938;2023-02-15T06:19:08;2.90;;;2.60;;
74465;SDS011;62916;50.044;15.938;2023-02-15T06:21:39;3.20;;;2.90;;
74465;SDS011;62916;50.044;15.938;2023-02-15T06:24:10;3.30;;;2.90;;
74465;SDS011;62916;50.044;15.938;2023-02-15T06:26:40;3.40;;;2.90;;
74465;SDS011;62916;50.044;15.938;2023-02-15T06:29:12;4.00;;;3.00;;
74465;SDS011;62916;50.044;15.938;2023-02-15T06:31:43;2.90;;;2.70;;
74465;SDS011;62916;50.044;15.938;2023-02-15T06:34:14;3.20;;;2.80;;
74465;SDS011;62916;50.044;15.938;2023-02-15T06:36:45;3.30;;;2.70;;
74465;SDS011;62916;50.044;15.938;2023-02-15T06:39:16;2.90;;;2.70;;
74465;SDS011;62916;50.044;15.938;2023-02-15T06:41:46;3.20;;;2.90;;
74465;SDS011;62916;50.044;15.938;2023-02-15T06:44:17;3.30;;;3.00;;
74465;SDS011;62916;50.044;15.938;2023-02-15T06:46:48;3.20;;;2.90;;
74465;SDS011;62916;50.044;15.938;2023-02-15T06:49:19;3.10;;;2.70;;
74465;SDS011;62916;50.044;15.938;2023-02-15T06:51:49;3.90;;;3.60;;
74465;SDS011;62916;50.044;15.938;2023-02-15T06:54:20;2.70;;;2.40;;
74465;SDS011;62916;50.044;15.938;2023-02-15T06:56:51;2.90;;;2.60;;
74465;SDS011;62916;50.044;15.938;2023-02-15T06:59:21;3.80;;;3.50;;
74465;SDS011;62916;50.044;15.938;2023-02-15T07:01:52;3.50;;;2.70;;
74465;SDS011;62916;50.044;15.938;2023-02-15T07:04:23;3.40;;;3.10;;
74465;SDS011;62916;50.044;15.938;2023-02-15T07:06:56;3.00;;;2.70;;
74465;SDS011;62916;50.044;15.938;2023-02-15T07:09:27;3.10;;;2.90;;
74465;SDS011;62916;50.044;15.938;2023-02-15T07:11:58;3.20;;;3.00;;
74465;SDS011;62916;50.044;15.938;2023-02-15T07:14:46;3.00;;;2.70;;
74465;SDS011;62916;50.044;15.938;2023-02-15T07:17:17;3.70;;;3.30;;
74465;SDS011;62916;50.044;15.938;2023-02-15T07:20:02;4.80;;;2.60;;
74465;SDS011;62916;50.044;15.938;2023-02-15T07:22:36;3.00;;;2.60;;
74465;SDS011;62916;50.044;15.938;2023-02-15T07:25:08;2.90;;;2.40;;
74465;SDS011;62916;50.044;15.938;2023-02-15T07:27:40;2.80;;;2.50;;
74465;SDS011;62916;50.044;15.938;2023-02-15T07:30:13;3.50;;;2.80;;
74465;SDS011;62916;50.044;15.938;2023-02-15T07:32:45;3.10;;;2.70;;
74465;SDS011;62916;50.044;15.938;2023-02-15T07:35:33;3.20;;;2.60;;
74465;SDS011;62916;50.044;15.938;2023-02-15T07:38:04;2.80;;;2.50;;
74465;SDS011;62916;50.044;15.938;2023-02-15T07:40:35;3.40;;;3.00;;
74465;SDS011;62916;50.044;15.938;2023-02-15T07:43:06;3.40;;;3.10;;
74465;SDS011;62916;50.044;15.938;2023-02-15T07:45:37;3.20;;;2.50;;
74465;SDS011;62916;50.044;15.938;2023-02-15T07:48:08;3.60;;;2.80;;
74465;SDS011;62916;50.044;15.938;2023-02-15T07:50:39;3.50;;;3.20;;
74465;SDS011;62916;50.044;15.938;2023-02-15T07:53:10;3.30;;;2.70;;
74465;SDS011;62916;50.044;15.938;2023-02-15T07:55:41;3.70;;;3.30;;
74465;SDS011;62916;50.044;15.938;2023-02-15T07:58:11;2.90;;;2.70;;
74465;SDS011;62916;50.044;15.938;2023-02-15T08:00:42;3.90;;;3.00;;
74465;SDS011;62916;50.044;15.938;2023-02-15T08:03:26;6.00;;;3.40;;
74465;SDS011;62916;50.044;15.938;2023-02-15T08:05:57;7.30;;;3.20;;
74465;SDS011;62916;50.044;15.938;2023-02-15T08:08:29;3.50;;;3.10;;
74465;SDS011;62916;50.044;15.938;2023-02-15T08:11:03;4.10;;;3.50;;
74465;SDS011;62916;50.044;15.938;2023-02-15T08:13:56;4.10;;;3.70;;
74465;SDS011;62916;50.044;15.938;2023-02-15T08:16:31;3.50;;;2.70;;
74465;SDS011;62916;50.044;15.938;2023-02-15T08:19:06;4.60;;;4.20;;
74465;SDS011;62916;50.044;15.938;2023-02-15T08:21:39;3.30;;;3.00;;
74465;SDS011;62916;50.044;15.938;2023-02-15T08:24:12;4.70;;;3.40;;
74465;SDS011;62916;50.044;15.938;2023-02-15T08:26:44;3.30;;;3.00;;
74465;SDS011;62916;50.044;15.938;2023-02-15T08:29:16;3.90;;;3.40;;
74465;SDS011;62916;50.044;15.938;2023-02-15T08:31:50;3.10;;;2.80;;
74465;SDS011;62916;50.044;15.938;2023-02-15T08:34:26;4.20;;;3.20;;
74465;SDS011;62916;50.044;15.938;2023-02-15T08:36:57;4.00;;;2.90;;
74465;SDS011;62916;50.044;15.938;2023-02-15T08:39:28;3.20;;;2.90;;
74465;SDS011;62916;50.044;15.938;2023-02-15T08:41:59;3.80;;;3.10;;
74465;SDS011;62916;50.044;15.938;2023-02-15T08:44:31;4.60;;;3.20;;
74465;SDS011;62916;50.044;15.938;2023-02-15T08:47:02;3.90;;;3.60;;
74465;SDS011;62916;50.044;15.938;2023-02-15T08:49:33;4.80;;;3.50;;
74465;SDS011;62916;50.044;15.938;2023-02-15T08:52:04;4.20;;;3.80;;
74465;SDS011;62916;50.044;15.938;2023-02-15T08:54:35;3.90;;;3.40;;
74465;SDS011;62916;50.044;15.938;2023-02-15T08:57:06;5.10;;;4.60;;
74465;SDS011;62916;50.044;15.938;2023-02-15T08:59:38;4.50;;;3.90;;
74465;SDS011;62916;50.044;15.938;2023-02-15T09:02:10;3.60;;;3.20;;
74465;SDS011;62916;50.044;15.938;2023-02-15T09:04:41;4.30;;;3.70;;
74465;SDS011;62916;50.044;15.938;2023-02-15T09:07:12;3.80;;;3.40;;
74465;SDS011;62916;50.044;15.938;2023-02-15T09:09:42;4.80;;;3.50;;
74465;SDS011;62916;50.044;15.938;2023-02-15T09:12:14;4.00;;;3.60;;
74465;SDS011;62916;50.044;15.938;2023-02-15T09:14:47;4.30;;;3.40;;
74465;SDS011;62916;50.044;15.938;2023-02-15T09:17:18;4.40;;;3.80;;
74465;SDS011;62916;50.044;15.938;2023-02-15T09:19:49;3.80;;;3.40;;
74465;SDS011;62916;50.044;15.938;2023-02-15T09:22:20;5.50;;;4.00;;
74465;SDS011;62916;50.044;15.938;2023-02-15T09:24:51;4.10;;;3.50;;
74465;SDS011;62916;50.044;15.938;2023-02-15T09:27:21;6.90;;;4.00;;
74465;SDS011;62916;50.044;15.938;2023-02-15T09:29:52;3.90;;;3.50;;
74465;SDS011;62916;50.044;15.938;2023-02-15T09:32:23;5.40;;;3.60;;
74465;SDS011;62916;50.044;15.938;2023-02-15T09:34:54;4.00;;;3.60;;
74465;SDS011;62916;50.044;15.938;2023-02-15T09:37:25;4.60;;;3.90;;
74465;SDS011;62916;50.044;15.938;2023-02-15T09:39:56;3.90;;;3.40;;
74465;SDS011;62916;50.044;15.938;2023-02-15T09:45:32;4.60;;;3.90;;
74465;SDS011;62916;50.044;15.938;2023-02-15T09:48:20;4.20;;;3.70;;
74465;SDS011;62916;50.044;15.938;2023-02-15T09:51:02;3.80;;;3.50;;
74465;SDS011;62916;50.044;15.938;2023-02-15T09:53:50;4.30;;;3.90;;
74465;SDS011;62916;50.044;15.938;2023-02-15T09:56:33;4.60;;;3.70;;
74465;SDS011;62916;50.044;15.938;2023-02-15T09:59:14;4.60;;;4.10;;
74465;SDS011;62916;50.044;15.938;2023-02-15T10:01:55;6.70;;;3.40;;
74465;SDS011;62916;50.044;15.938;2023-02-15T10:04:46;4.60;;;4.10;;
74465;SDS011;62916;50.044;15.938;2023-02-15T10:07:27;4.30;;;3.90;;
74465;SDS011;62916;50.044;15.938;2023-02-15T10:10:20;4.10;;;3.80;;
74465;SDS011;62916;50.044;15.938;2023-02-15T10:13:08;3.90;;;3.50;;
74465;SDS011;62916;50.044;15.938;2023-02-15T10:15:53;4.40;;;3.50;;
74465;SDS011;62916;50.044;15.938;2023-02-15T10:18:38;4.10;;;3.60;;
74465;SDS011;62916;50.044;15.938;2023-02-15T10:21:18;4.10;;;3.30;;
74465;SDS011;62916;50.044;15.938;2023-02-15T10:24:07;4.00;;;3.30;;
74465;SDS011;62916;50.044;15.938;2023-02-15T10:26:50;4.20;;;3.80;;
74465;SDS011;62916;50.044;15.938;2023-02-15T10:29:27;4.10;;;3.70;;
74465;SDS011;62916;50.044;15.938;2023-02-15T10:32:08;4.20;;;3.70;;
74465;SDS011;62916;50.044;15.938;2023-02-15T10:34:47;4.40;;;3.70;;
74465;SDS011;62916;50.044;15.938;2023-02-15T10:40:17;5.20;;;4.70;;
74465;SDS011;62916;50.044;15.938;2023-02-15T10:42:59;4.30;;;3.80;;
74465;SDS011;62916;50.044;15.938;2023-02-15T10:45:43;4.10;;;3.50;;
74465;SDS011;62916;50.044;15.938;2023-02-15T10:48:29;4.00;;;3.60;;
74465;SDS011;62916;50.044;15.938;2023-02-15T10:51:15;4.20;;;3.80;;
74465;SDS011;62916;50.044;15.938;2023-02-15T10:54:04;4.30;;;3.80;;
74465;SDS011;62916;50.044;15.938;2023-02-15T10:56:43;3.90;;;3.30;;
74465;SDS011;62916;50.044;15.938;2023-02-15T10:59:27;3.80;;;3.40;;
74465;SDS011;62916;50.044;15.938;2023-02-15T11:02:18;4.00;;;3.50;;
74465;SDS011;62916;50.044;15.938;2023-02-15T11:05:00;3.90;;;3.50;;
74465;SDS011;62916;50.044;15.938;2023-02-15T11:07:45;4.60;;;4.20;;
74465;SDS011;62916;50.044;15.938;2023-02-15T11:10:24;4.50;;;3.90;;
74465;SDS011;62916;50.044;15.938;2023-02-15T11:13:00;4.20;;;3.80;;
74465;SDS011;62916;50.044;15.938;2023-02-15T11:15:38;3.90;;;3.50;;
74465;SDS011;62916;50.044;15.938;2023-02-15T11:18:14;4.30;;;3.30;;
74465;SDS011;62916;50.044;15.938;2023-02-15T11:20:52;5.00;;;4.50;;
74465;SDS011;62916;50.044;15.938;2023-02-15T11:23:27;4.40;;;3.50;;
74465;SDS011;62916;50.044;15.938;2023-02-15T11:28:33;4.50;;;3.90;;
74465;SDS011;62916;50.044;15.938;2023-02-15T11:31:12;4.30;;;3.80;;
74465;SDS011;62916;50.044;15.938;2023-02-15T11:33:47;5.80;;;3.50;;
74465;SDS011;62916;50.044;15.938;2023-02-15T11:36:24;3.40;;;3.00;;
74465;SDS011;62916;50.044;15.938;2023-02-15T11:38:58;3.30;;;3.00;;
74465;SDS011;62916;50.044;15.938;2023-02-15T11:41:34;4.10;;;3.60;;
74465;SDS011;62916;50.044;15.938;2023-02-15T11:44:11;4.10;;;3.50;;
74465;SDS011;62916;50.044;15.938;2023-02-15T11:46:46;4.00;;;3.40;;
74465;SDS011;62916;50.044;15.938;2023-02-15T11:49:22;4.80;;;3.70;;
74465;SDS011;62916;50.044;15.938;2023-02-15T11:51:56;4.70;;;3.90;;
74465;SDS011;62916;50.044;15.938;2023-02-15T11:54:29;4.10;;;3.60;;
74465;SDS011;62916;50.044;15.938;2023-02-15T11:57:05;4.80;;;3.80;;
74465;SDS011;62916;50.044;15.938;2023-02-15T11:59:45;4.70;;;3.70;;
74465;SDS011;62916;50.044;15.938;2023-02-15T12:02:20;4.10;;;3.70;;
74465;SDS011;62916;50.044;15.938;2023-02-15T12:04:55;4.70;;;3.60;;
74465;SDS011;62916;50.044;15.938;2023-02-15T12:07:30;4.00;;;3.50;;
74465;SDS011;62916;50.044;15.938;2023-02-15T12:10:13;4.20;;;3.50;;
74465;SDS011;62916;50.044;15.938;2023-02-15T12:12:51;4.30;;;3.60;;
74465;SDS011;62916;50.044;15.938;2023-02-15T12:15:40;5.20;;;4.50;;
74465;SDS011;62916;50.044;15.938;2023-02-15T12:18:31;4.80;;;4.00;;
74465;SDS011;62916;50.044;15.938;2023-02-15T12:21:07;4.60;;;4.00;;
74465;SDS011;62916;50.044;15.938;2023-02-15T12:23:43;5.50;;;4.40;;
74465;SDS011;62916;50.044;15.938;2023-02-15T12:26:24;5.70;;;4.90;;
74465;SDS011;62916;50.044;15.938;2023-02-15T12:28:57;6.50;;;3.90;;
74465;SDS011;62916;50.044;15.938;2023-02-15T12:31:32;4.50;;;4.00;;
74465;SDS011;62916;50.044;15.938;2023-02-15T12:34:09;4.40;;;3.50;;
74465;SDS011;62916;50.044;15.938;2023-02-15T12:36:47;4.90;;;3.80;;
74465;SDS011;62916;50.044;15.938;2023-02-15T12:39:22;6.20;;;4.00;;
74465;SDS011;62916;50.044;15.938;2023-02-15T12:42:00;4.80;;;4.40;;
74465;SDS011;62916;50.044;15.938;2023-02-15T12:44:34;4.40;;;3.70;;
74465;SDS011;62916;50.044;15.938;2023-02-15T12:47:06;4.40;;;3.90;;
74465;SDS011;62916;50.044;15.938;2023-02-15T12:50:06;4.10;;;3.70;;
74465;SDS011;62916;50.044;15.938;2023-02-15T12:52:51;4.40;;;3.80;;
74465;SDS011;62916;50.044;15.938;2023-02-15T12:55:34;10.30;;;7.00;;
74465;SDS011;62916;50.044;15.938;2023-02-15T12:58:15;4.90;;;4.40;;
74465;SDS011;62916;50.044;15.938;2023-02-15T13:00:47;5.00;;;4.60;;
74465;SDS011;62916;50.044;15.938;2023-02-15T13:03:31;4.70;;;4.20;;
74465;SDS011;62916;50.044;15.938;2023-02-15T13:06:02;5.00;;;4.20;;
74465;SDS011;62916;50.044;15.938;2023-02-15T13:08:37;6.70;;;5.10;;
74465;SDS011;62916;50.044;15.938;2023-02-15T13:11:19;4.50;;;4.10;;
74465;SDS011;62916;50.044;15.938;2023-02-15T13:13:54;5.10;;;4.20;;
74465;SDS011;62916;50.044;15.938;2023-02-15T13:16:28;4.70;;;4.20;;
74465;SDS011;62916;50.044;15.938;2023-02-15T13:19:04;5.10;;;4.50;;
74465;SDS011;62916;50.044;15.938;2023-02-15T13:21:41;5.10;;;4.00;;
74465;SDS011;62916;50.044;15.938;2023-02-15T13:24:17;4.20;;;3.80;;
74465;SDS011;62916;50.044;15.938;2023-02-15T13:26:51;4.70;;;3.80;;
74465;SDS011;62916;50.044;15.938;2023-02-15T13:29:43;6.10;;;4.40;;
74465;SDS011;62916;50.044;15.938;2023-02-15T13:32:22;4.90;;;4.50;;
74465;SDS011;62916;50.044;15.938;2023-02-15T13:34:58;5.30;;;4.80;;
74465;SDS011;62916;50.044;15.938;2023-02-15T13:37:41;6.40;;;4.50;;
74465;SDS011;62916;50.044;15.938;2023-02-15T13:40:32;6.60;;;4.70;;
74465;SDS011;62916;50.044;15.938;2023-02-15T13:43:10;5.20;;;4.70;;
74465;SDS011;62916;50.044;15.938;2023-02-15T13:45:53;5.90;;;4.80;;
74465;SDS011;62916;50.044;15.938;2023-02-15T13:48:36;5.00;;;4.50;;
74465;SDS011;62916;50.044;15.938;2023-02-15T13:51:19;5.10;;;4.60;;
74465;SDS011;62916;50.044;15.938;2023-02-15T13:56:52;5.00;;;4.40;;
74465;SDS011;62916;50.044;15.938;2023-02-15T13:59:38;5.20;;;4.60;;
74465;SDS011;62916;50.044;15.938;2023-02-15T14:02:30;5.60;;;4.80;;
74465;SDS011;62916;50.044;15.938;2023-02-15T14:05:29;5.60;;;4.60;;
74465;SDS011;62916;50.044;15.938;2023-02-15T14:08:17;4.80;;;4.20;;
74465;SDS011;62916;50.044;15.938;2023-02-15T14:10:59;5.30;;;4.40;;
74465;SDS011;62916;50.044;15.938;2023-02-15T14:13:50;4.90;;;4.20;;
74465;SDS011;62916;50.044;15.938;2023-02-15T14:16:35;5.40;;;4.40;;
74465;SDS011;62916;50.044;15.938;2023-02-15T14:19:34;4.50;;;4.10;;
74465;SDS011;62916;50.044;15.938;2023-02-15T14:22:10;5.30;;;4.10;;
74465;SDS011;62916;50.044;15.938;2023-02-15T14:24:52;4.40;;;4.00;;
74465;SDS011;62916;50.044;15.938;2023-02-15T14:27:40;4.50;;;4.10;;
74465;SDS011;62916;50.044;15.938;2023-02-15T14:30:20;5.20;;;4.30;;
74465;SDS011;62916;50.044;15.938;2023-02-15T14:32:55;5.30;;;4.50;;
74465;SDS011;62916;50.044;15.938;2023-02-15T14:35:30;4.90;;;4.20;;
74465;SDS011;62916;50.044;15.938;2023-02-15T14:38:02;4.90;;;4.30;;
74465;SDS011;62916;50.044;15.938;2023-02-15T14:40:45;4.40;;;4.00;;
74465;SDS011;62916;50.044;15.938;2023-02-15T14:43:33;4.80;;;4.20;;
74465;SDS011;62916;50.044;15.938;2023-02-15T14:46:16;4.20;;;3.80;;
74465;SDS011;62916;50.044;15.938;2023-02-15T14:48:56;5.50;;;4.90;;
74465;SDS011;62916;50.044;15.938;2023-02-15T14:57:34;5.00;;;4.20;;
74465;SDS011;62916;50.044;15.938;2023-02-15T15:03:03;4.20;;;3.70;;
74465;SDS011;62916;50.044;15.938;2023-02-15T15:05:49;6.10;;;5.00;;
74465;SDS011;62916;50.044;15.938;2023-02-15T15:10:57;5.20;;;4.50;;
74465;SDS011;62916;50.044;15.938;2023-02-15T15:14:15;5.20;;;4.30;;
74465;SDS011;62916;50.044;15.938;2023-02-15T15:17:39;5.80;;;4.70;;
74465;SDS011;62916;50.044;15.938;2023-02-15T15:20:37;8.20;;;7.00;;
74465;SDS011;62916;50.044;15.938;2023-02-15T15:26:22;6.00;;;5.00;;
74465;SDS011;62916;50.044;15.938;2023-02-15T15:28:59;5.60;;;4.70;;
74465;SDS011;62916;50.044;15.938;2023-02-15T15:31:42;6.30;;;5.40;;
74465;SDS011;62916;50.044;15.938;2023-02-15T15:34:34;6.60;;;5.40;;
74465;SDS011;62916;50.044;15.938;2023-02-15T15:37:49;6.40;;;5.80;;
74465;SDS011;62916;50.044;15.938;2023-02-15T15:40:42;6.10;;;5.50;;
74465;SDS011;62916;50.044;15.938;2023-02-15T15:46:43;5.10;;;4.60;;
74465;SDS011;62916;50.044;15.938;2023-02-15T15:49:29;6.30;;;5.20;;
74465;SDS011;62916;50.044;15.938;2023-02-15T15:52:02;5.90;;;4.80;;
74465;SDS011;62916;50.044;15.938;2023-02-15T15:54:41;6.20;;;5.00;;
74465;SDS011;62916;50.044;15.938;2023-02-15T15:57:15;5.20;;;4.60;;
74465;SDS011;62916;50.044;15.938;2023-02-15T15:59:51;5.30;;;4.70;;
74465;SDS011;62916;50.044;15.938;2023-02-15T16:02:23;4.90;;;4.40;;
74465;SDS011;62916;50.044;15.938;2023-02-15T16:04:54;6.50;;;4.80;;
74465;SDS011;62916;50.044;15.938;2023-02-15T16:07:34;6.30;;;5.20;;